sensor_id;sensor_type;location;lat;lon;timestamp;P1;durP1;ratioP1;P2;durP2;ratioP2
9052;SDS011;4561;47.450;7.516;2022-11-10T00:02:25;2.90;;;1.70;;
9052;SDS011;4561;47.450;7.516;2022-11-10T00:05:46;2.93;;;1.57;;
9052;SDS011;4561;47.450;7.516;2022-11-10T00:09:06;4.73;;;3.43;;
9052;SDS011;4561;47.450;7.516;2022-11-10T00:12:30;5.77;;;4.07;;
9052;SDS011;4561;47.450;7.516;2022-11-10T00:15:59;3.07;;;2.40;;
9052;SDS011;4561;47.450;7.516;2022-11-10T00:19:39;3.77;;;3.27;;
9052;SDS011;4561;47.450;7.516;2022-11-10T00:22:59;4.37;;;2.77;;
9052;SDS011;4561;47.450;7.516;2022-11-10T00:26:20;4.47;;;2.83;;
9052;SDS011;4561;47.450;7.516;2022-11-10T00:29:40;2.90;;;2.03;;
9052;SDS011;4561;47.450;7.516;2022-11-10T00:33:00;3.33;;;1.90;;
9052;SDS011;4561;47.450;7.516;2022-11-10T00:36:21;3.00;;;1.40;;
9052;SDS011;4561;47.450;7.516;2022-11-10T00:39:42;2.47;;;1.83;;
9052;SDS011;4561;47.450;7.516;2022-11-10T00:43:02;3.27;;;1.83;;
9052;SDS011;4561;47.450;7.516;2022-11-10T00:46:22;2.43;;;1.50;;
9052;SDS011;4561;47.450;7.516;2022-11-10T00:49:43;4.13;;;2.00;;
9052;SDS011;4561;47.450;7.516;2022-11-10T00:53:03;1.83;;;1.70;;
9052;SDS011;4561;47.450;7.516;2022-11-10T00:56:24;3.43;;;1.90;;
9052;SDS011;4561;47.450;7.516;2022-11-10T00:59:44;4.57;;;2.37;;
9052;SDS011;4561;47.450;7.516;2022-11-10T01:03:05;5.37;;;2.33;;
9052;SDS011;4561;47.450;7.516;2022-11-10T01:06:25;3.90;;;2.13;;
9052;SDS011;4561;47.450;7.516;2022-11-10T01:09:46;5.77;;;2.13;;
9052;SDS011;4561;47.450;7.516;2022-11-10T01:13:07;3.93;;;2.27;;
9052;SDS011;4561;47.450;7.516;2022-11-10T01:16:28;3.50;;;2.20;;
9052;SDS011;4561;47.450;7.516;2022-11-10T01:19:52;3.13;;;1.93;;
9052;SDS011;4561;47.450;7.516;2022-11-10T01:23:13;4.30;;;1.90;;
9052;SDS011;4561;47.450;7.516;2022-11-10T01:26:33;6.73;;;1.80;;
9052;SDS011;4561;47.450;7.516;2022-11-10T01:29:53;5.00;;;1.67;;
9052;SDS011;4561;47.450;7.516;2022-11-10T01:33:14;3.33;;;1.63;;
9052;SDS011;4561;47.450;7.516;2022-11-10T01:36:36;4.97;;;1.67;;
9052;SDS011;4561;47.450;7.516;2022-11-10T01:39:57;5.17;;;1.80;;
9052;SDS011;4561;47.450;7.516;2022-11-10T01:43:17;3.30;;;1.40;;
9052;SDS011;4561;47.450;7.516;2022-11-10T01:46:37;2.77;;;1.90;;
9052;SDS011;4561;47.450;7.516;2022-11-10T01:49:58;3.73;;;1.60;;
9052;SDS011;4561;47.450;7.516;2022-11-10T01:53:19;4.97;;;2.63;;
9052;SDS011;4561;47.450;7.516;2022-11-10T01:56:44;4.63;;;2.47;;
9052;SDS011;4561;47.450;7.516;2022-11-10T02:00:07;3.77;;;2.37;;
9052;SDS011;4561;47.450;7.516;2022-11-10T02:03:40;8.43;;;3.17;;
9052;SDS011;4561;47.450;7.516;2022-11-10T02:07:11;4.20;;;2.70;;
9052;SDS011;4561;47.450;7.516;2022-11-10T02:10:31;5.33;;;3.20;;
9052;SDS011;4561;47.450;7.516;2022-11-10T02:13:52;5.90;;;4.00;;
9052;SDS011;4561;47.450;7.516;2022-11-10T02:17:12;4.73;;;4.10;;
9052;SDS011;4561;47.450;7.516;2022-11-10T02:20:33;6.90;;;3.50;;
9052;SDS011;4561;47.450;7.516;2022-11-10T02:23:54;4.33;;;1.83;;
9052;SDS011;4561;47.450;7.516;2022-11-10T02:27:14;5.00;;;1.97;;
9052;SDS011;4561;47.450;7.516;2022-11-10T02:30:34;3.77;;;1.80;;
9052;SDS011;4561;47.450;7.516;2022-11-10T02:33:55;5.53;;;1.70;;
9052;SDS011;4561;47.450;7.516;2022-11-10T02:37:18;8.40;;;1.97;;
9052;SDS011;4561;47.450;7.516;2022-11-10T02:40:39;7.20;;;1.53;;
9052;SDS011;4561;47.450;7.516;2022-11-10T02:43:59;5.67;;;1.63;;
9052;SDS011;4561;47.450;7.516;2022-11-10T02:47:20;4.93;;;1.37;;
9052;SDS011;4561;47.450;7.516;2022-11-10T02:50:40;5.33;;;1.80;;
9052;SDS011;4561;47.450;7.516;2022-11-10T02:54:01;4.23;;;1.50;;
9052;SDS011;4561;47.450;7.516;2022-11-10T02:57:22;5.20;;;1.40;;
9052;SDS011;4561;47.450;7.516;2022-11-10T03:00:42;6.83;;;1.50;;
9052;SDS011;4561;47.450;7.516;2022-11-10T03:04:02;5.77;;;1.70;;
9052;SDS011;4561;47.450;7.516;2022-11-10T03:07:23;8.90;;;1.90;;
9052;SDS011;4561;47.450;7.516;2022-11-10T03:10:43;5.40;;;1.60;;
9052;SDS011;4561;47.450;7.516;2022-11-10T03:14:04;4.27;;;1.60;;
9052;SDS011;4561;47.450;7.516;2022-11-10T03:17:24;4.33;;;1.70;;
9052;SDS011;4561;47.450;7.516;2022-11-10T03:20:46;3.90;;;1.77;;
9052;SDS011;4561;47.450;7.516;2022-11-10T03:24:09;9.07;;;1.83;;
9052;SDS011;4561;47.450;7.516;2022-11-10T03:27:30;3.50;;;1.87;;
9052;SDS011;4561;47.450;7.516;2022-11-10T03:30:50;3.17;;;1.67;;
9052;SDS011;4561;47.450;7.516;2022-11-10T03:34:10;4.57;;;1.97;;
9052;SDS011;4561;47.450;7.516;2022-11-10T03:37:31;4.40;;;1.90;;
9052;SDS011;4561;47.450;7.516;2022-11-10T03:40:53;6.43;;;1.50;;
9052;SDS011;4561;47.450;7.516;2022-11-10T03:44:14;5.80;;;1.70;;
9052;SDS011;4561;47.450;7.516;2022-11-10T03:47:34;4.03;;;1.80;;
9052;SDS011;4561;47.450;7.516;2022-11-10T03:50:57;4.47;;;1.90;;
9052;SDS011;4561;47.450;7.516;2022-11-10T03:54:18;10.17;;;2.00;;
9052;SDS011;4561;47.450;7.516;2022-11-10T03:57:38;8.27;;;2.03;;
9052;SDS011;4561;47.450;7.516;2022-11-10T04:00:59;5.90;;;1.70;;
9052;SDS011;4561;47.450;7.516;2022-11-10T04:04:19;7.47;;;2.00;;
9052;SDS011;4561;47.450;7.516;2022-11-10T04:07:58;9.47;;;1.93;;
9052;SDS011;4561;47.450;7.516;2022-11-10T04:11:38;3.53;;;1.60;;
9052;SDS011;4561;47.450;7.516;2022-11-10T04:15:17;7.63;;;1.83;;
9052;SDS011;4561;47.450;7.516;2022-11-10T04:18:56;4.70;;;1.73;;
9052;SDS011;4561;47.450;7.516;2022-11-10T04:22:16;6.17;;;1.70;;
9052;SDS011;4561;47.450;7.516;2022-11-10T04:26:07;3.67;;;1.30;;
9052;SDS011;4561;47.450;7.516;2022-11-10T04:29:47;5.03;;;1.70;;
9052;SDS011;4561;47.450;7.516;2022-11-10T04:33:07;6.27;;;1.83;;
9052;SDS011;4561;47.450;7.516;2022-11-10T04:36:28;4.67;;;1.57;;
9052;SDS011;4561;47.450;7.516;2022-11-10T04:39:50;4.30;;;1.73;;
9052;SDS011;4561;47.450;7.516;2022-11-10T04:43:10;6.20;;;1.70;;
9052;SDS011;4561;47.450;7.516;2022-11-10T04:49:57;8.57;;;2.57;;
9052;SDS011;4561;47.450;7.516;2022-11-10T04:53:18;6.40;;;2.10;;
9052;SDS011;4561;47.450;7.516;2022-11-10T04:56:38;6.10;;;1.60;;
9052;SDS011;4561;47.450;7.516;2022-11-10T04:59:59;9.13;;;1.80;;
9052;SDS011;4561;47.450;7.516;2022-11-10T05:03:19;7.43;;;1.50;;
9052;SDS011;4561;47.450;7.516;2022-11-10T05:06:39;5.00;;;1.40;;
9052;SDS011;4561;47.450;7.516;2022-11-10T05:10:03;5.67;;;1.47;;
9052;SDS011;4561;47.450;7.516;2022-11-10T05:13:23;8.97;;;1.50;;
9052;SDS011;4561;47.450;7.516;2022-11-10T05:16:44;5.50;;;1.40;;
9052;SDS011;4561;47.450;7.516;2022-11-10T05:20:09;4.97;;;1.60;;
9052;SDS011;4561;47.450;7.516;2022-11-10T05:23:29;3.83;;;1.53;;
9052;SDS011;4561;47.450;7.516;2022-11-10T05:26:59;8.03;;;2.50;;
9052;SDS011;4561;47.450;7.516;2022-11-10T05:30:23;4.80;;;2.00;;
9052;SDS011;4561;47.450;7.516;2022-11-10T05:33:43;4.87;;;1.73;;
9052;SDS011;4561;47.450;7.516;2022-11-10T05:37:04;4.43;;;1.37;;
9052;SDS011;4561;47.450;7.516;2022-11-10T05:40:27;5.70;;;1.50;;
9052;SDS011;4561;47.450;7.516;2022-11-10T05:43:48;4.93;;;1.33;;
9052;SDS011;4561;47.450;7.516;2022-11-10T05:47:10;2.97;;;1.33;;
9052;SDS011;4561;47.450;7.516;2022-11-10T05:50:31;6.03;;;1.80;;
9052;SDS011;4561;47.450;7.516;2022-11-10T05:53:51;3.30;;;1.50;;
9052;SDS011;4561;47.450;7.516;2022-11-10T05:57:14;4.20;;;1.53;;
9052;SDS011;4561;47.450;7.516;2022-11-10T06:00:35;5.93;;;1.70;;
9052;SDS011;4561;47.450;7.516;2022-11-10T06:03:55;3.27;;;1.13;;
9052;SDS011;4561;47.450;7.516;2022-11-10T06:07:16;7.57;;;1.47;;
9052;SDS011;4561;47.450;7.516;2022-11-10T06:10:36;16.33;;;8.43;;
9052;SDS011;4561;47.450;7.516;2022-11-10T06:13:57;12.23;;;5.93;;
9052;SDS011;4561;47.450;7.516;2022-11-10T06:17:19;10.27;;;3.00;;
9052;SDS011;4561;47.450;7.516;2022-11-10T06:20:40;9.17;;;2.47;;
9052;SDS011;4561;47.450;7.516;2022-11-10T06:24:00;6.20;;;2.00;;
9052;SDS011;4561;47.450;7.516;2022-11-10T06:27:23;11.37;;;3.13;;
9052;SDS011;4561;47.450;7.516;2022-11-10T06:30:43;7.50;;;3.20;;
9052;SDS011;4561;47.450;7.516;2022-11-10T06:34:04;8.60;;;3.13;;
9052;SDS011;4561;47.450;7.516;2022-11-10T06:37:24;10.60;;;2.87;;
9052;SDS011;4561;47.450;7.516;2022-11-10T06:40:44;5.70;;;3.10;;
9052;SDS011;4561;47.450;7.516;2022-11-10T06:44:05;7.17;;;3.27;;
9052;SDS011;4561;47.450;7.516;2022-11-10T06:47:30;7.37;;;2.97;;
9052;SDS011;4561;47.450;7.516;2022-11-10T06:50:51;6.87;;;2.30;;
9052;SDS011;4561;47.450;7.516;2022-11-10T06:54:11;4.37;;;1.60;;
9052;SDS011;4561;47.450;7.516;2022-11-10T06:57:38;6.13;;;2.47;;
9052;SDS011;4561;47.450;7.516;2022-11-10T07:00:59;36.33;;;26.00;;
9052;SDS011;4561;47.450;7.516;2022-11-10T07:04:20;22.33;;;16.07;;
9052;SDS011;4561;47.450;7.516;2022-11-10T07:07:40;17.20;;;10.77;;
9052;SDS011;4561;47.450;7.516;2022-11-10T07:11:01;6.23;;;2.10;;
9052;SDS011;4561;47.450;7.516;2022-11-10T07:14:21;7.27;;;2.20;;
9052;SDS011;4561;47.450;7.516;2022-11-10T07:17:44;7.40;;;4.90;;
9052;SDS011;4561;47.450;7.516;2022-11-10T07:21:04;6.50;;;4.20;;
9052;SDS011;4561;47.450;7.516;2022-11-10T07:24:25;4.33;;;3.27;;
9052;SDS011;4561;47.450;7.516;2022-11-10T07:27:53;4.43;;;3.10;;
9052;SDS011;4561;47.450;7.516;2022-11-10T07:31:14;4.13;;;2.23;;
9052;SDS011;4561;47.450;7.516;2022-11-10T07:34:34;6.97;;;2.10;;
9052;SDS011;4561;47.450;7.516;2022-11-10T07:37:55;8.93;;;6.03;;
9052;SDS011;4561;47.450;7.516;2022-11-10T07:41:16;5.23;;;2.03;;
9052;SDS011;4561;47.450;7.516;2022-11-10T07:44:36;3.83;;;1.70;;
9052;SDS011;4561;47.450;7.516;2022-11-10T07:48:00;3.60;;;1.67;;
9052;SDS011;4561;47.450;7.516;2022-11-10T07:51:21;5.67;;;1.63;;
9052;SDS011;4561;47.450;7.516;2022-11-10T07:54:42;5.50;;;2.60;;
9052;SDS011;4561;47.450;7.516;2022-11-10T07:58:02;3.07;;;1.47;;
9052;SDS011;4561;47.450;7.516;2022-11-10T08:01:23;4.10;;;1.87;;
9052;SDS011;4561;47.450;7.516;2022-11-10T08:04:43;6.60;;;1.50;;
9052;SDS011;4561;47.450;7.516;2022-11-10T08:08:04;7.80;;;2.13;;
9052;SDS011;4561;47.450;7.516;2022-11-10T08:11:24;8.30;;;1.73;;
9052;SDS011;4561;47.450;7.516;2022-11-10T08:14:45;9.43;;;2.77;;
9052;SDS011;4561;47.450;7.516;2022-11-10T08:21:42;8.47;;;4.80;;
9052;SDS011;4561;47.450;7.516;2022-11-10T08:25:02;5.27;;;2.90;;
9052;SDS011;4561;47.450;7.516;2022-11-10T08:28:23;3.30;;;1.90;;
9052;SDS011;4561;47.450;7.516;2022-11-10T08:31:43;4.00;;;1.70;;
9052;SDS011;4561;47.450;7.516;2022-11-10T08:35:04;3.23;;;1.70;;
9052;SDS011;4561;47.450;7.516;2022-11-10T08:38:24;4.90;;;1.87;;
9052;SDS011;4561;47.450;7.516;2022-11-10T08:41:45;2.83;;;1.67;;
9052;SDS011;4561;47.450;7.516;2022-11-10T08:45:05;2.17;;;1.60;;
9052;SDS011;4561;47.450;7.516;2022-11-10T08:48:26;2.10;;;1.50;;
9052;SDS011;4561;47.450;7.516;2022-11-10T08:51:47;2.67;;;1.87;;
9052;SDS011;4561;47.450;7.516;2022-11-10T08:55:07;10.33;;;6.83;;
9052;SDS011;4561;47.450;7.516;2022-11-10T08:58:27;6.20;;;3.07;;
9052;SDS011;4561;47.450;7.516;2022-11-10T09:01:48;3.13;;;1.20;;
9052;SDS011;4561;47.450;7.516;2022-11-10T09:05:08;13.43;;;1.80;;
9052;SDS011;4561;47.450;7.516;2022-11-10T09:08:29;24.23;;;2.23;;
9052;SDS011;4561;47.450;7.516;2022-11-10T09:11:52;19.07;;;1.90;;
9052;SDS011;4561;47.450;7.516;2022-11-10T09:15:13;6.17;;;1.80;;
9052;SDS011;4561;47.450;7.516;2022-11-10T09:18:33;24.10;;;2.90;;
9052;SDS011;4561;47.450;7.516;2022-11-10T09:21:53;1.90;;;1.40;;
9052;SDS011;4561;47.450;7.516;2022-11-10T09:25:14;2.30;;;1.50;;
9052;SDS011;4561;47.450;7.516;2022-11-10T09:28:36;2.13;;;1.33;;
9052;SDS011;4561;47.450;7.516;2022-11-10T09:31:57;3.00;;;1.63;;
9052;SDS011;4561;47.450;7.516;2022-11-10T09:35:17;3.87;;;1.90;;
9052;SDS011;4561;47.450;7.516;2022-11-10T09:38:40;2.93;;;1.40;;
9052;SDS011;4561;47.450;7.516;2022-11-10T09:42:01;4.73;;;1.47;;
9052;SDS011;4561;47.450;7.516;2022-11-10T09:48:57;4.17;;;1.30;;
9052;SDS011;4561;47.450;7.516;2022-11-10T09:52:22;4.67;;;1.57;;
9052;SDS011;4561;47.450;7.516;2022-11-10T09:55:55;5.03;;;1.50;;
9052;SDS011;4561;47.450;7.516;2022-11-10T09:59:22;3.60;;;1.20;;
9052;SDS011;4561;47.450;7.516;2022-11-10T10:03:04;4.27;;;1.57;;
9052;SDS011;4561;47.450;7.516;2022-11-10T10:06:25;2.50;;;1.40;;
9052;SDS011;4561;47.450;7.516;2022-11-10T10:16:59;2.23;;;1.20;;
9052;SDS011;4561;47.450;7.516;2022-11-10T10:23:54;2.97;;;1.40;;
9052;SDS011;4561;47.450;7.516;2022-11-10T10:27:26;3.43;;;1.37;;
9052;SDS011;4561;47.450;7.516;2022-11-10T10:30:48;5.67;;;2.80;;
9052;SDS011;4561;47.450;7.516;2022-11-10T10:34:10;3.57;;;1.53;;
9052;SDS011;4561;47.450;7.516;2022-11-10T10:37:53;4.75;;;1.90;;
9052;SDS011;4561;47.450;7.516;2022-11-10T10:41:24;4.90;;;2.90;;
9052;SDS011;4561;47.450;7.516;2022-11-10T10:48:35;3.15;;;1.60;;
9052;SDS011;4561;47.450;7.516;2022-11-10T10:52:01;3.75;;;2.30;;
9052;SDS011;4561;47.450;7.516;2022-11-10T10:55:22;3.60;;;1.60;;
9052;SDS011;4561;47.450;7.516;2022-11-10T10:58:51;2.47;;;1.50;;
9052;SDS011;4561;47.450;7.516;2022-11-10T11:02:20;4.43;;;2.20;;
9052;SDS011;4561;47.450;7.516;2022-11-10T11:05:42;3.03;;;1.38;;
9052;SDS011;4561;47.450;7.516;2022-11-10T11:09:21;2.55;;;1.98;;
9052;SDS011;4561;47.450;7.516;2022-11-10T11:12:42;4.20;;;1.80;;
9052;SDS011;4561;47.450;7.516;2022-11-10T11:16:07;5.18;;;1.50;;
9052;SDS011;4561;47.450;7.516;2022-11-10T11:19:29;5.60;;;1.42;;
9052;SDS011;4561;47.450;7.516;2022-11-10T11:26:54;4.30;;;1.67;;
9052;SDS011;4561;47.450;7.516;2022-11-10T11:30:21;2.78;;;1.30;;
9052;SDS011;4561;47.450;7.516;2022-11-10T11:37:35;4.20;;;1.60;;
9052;SDS011;4561;47.450;7.516;2022-11-10T11:45:06;3.77;;;1.57;;
9052;SDS011;4561;47.450;7.516;2022-11-10T11:59:57;5.37;;;1.50;;
9052;SDS011;4561;47.450;7.516;2022-11-10T12:07:30;2.40;;;1.27;;
9052;SDS011;4561;47.450;7.516;2022-11-10T12:11:15;3.37;;;1.30;;
9052;SDS011;4561;47.450;7.516;2022-11-10T12:14:52;4.13;;;1.60;;
9052;SDS011;4561;47.450;7.516;2022-11-10T12:22:34;4.80;;;1.43;;
9052;SDS011;4561;47.450;7.516;2022-11-10T12:25:31;3.53;;;1.77;;
9052;SDS011;4561;47.450;7.516;2022-11-10T12:36:19;4.77;;;1.60;;
9052;SDS011;4561;47.450;7.516;2022-11-10T12:43:30;4.10;;;1.67;;
9052;SDS011;4561;47.450;7.516;2022-11-10T12:46:56;7.77;;;1.87;;
9052;SDS011;4561;47.450;7.516;2022-11-10T12:54:02;4.27;;;1.50;;
9052;SDS011;4561;47.450;7.516;2022-11-10T12:57:23;4.87;;;1.40;;
9052;SDS011;4561;47.450;7.516;2022-11-10T13:01:05;4.43;;;1.33;;
9052;SDS011;4561;47.450;7.516;2022-11-10T13:04:31;3.17;;;1.57;;
9052;SDS011;4561;47.450;7.516;2022-11-10T13:08:05;6.80;;;1.50;;
9052;SDS011;4561;47.450;7.516;2022-11-10T13:11:29;6.50;;;1.83;;
9052;SDS011;4561;47.450;7.516;2022-11-10T13:14:52;4.70;;;1.57;;
9052;SDS011;4561;47.450;7.516;2022-11-10T13:22:08;4.97;;;1.50;;
9052;SDS011;4561;47.450;7.516;2022-11-10T13:28:57;2.77;;;1.13;;
9052;SDS011;4561;47.450;7.516;2022-11-10T13:32:23;4.60;;;1.43;;
9052;SDS011;4561;47.450;7.516;2022-11-10T13:35:49;6.93;;;1.90;;
9052;SDS011;4561;47.450;7.516;2022-11-10T13:42:42;4.50;;;1.50;;
9052;SDS011;4561;47.450;7.516;2022-11-10T13:46:18;4.83;;;1.70;;
9052;SDS011;4561;47.450;7.516;2022-11-10T13:56:58;3.30;;;1.63;;
9052;SDS011;4561;47.450;7.516;2022-11-10T14:00:30;7.30;;;2.30;;
9052;SDS011;4561;47.450;7.516;2022-11-10T14:03:55;6.23;;;1.80;;
9052;SDS011;4561;47.450;7.516;2022-11-10T14:07:19;4.93;;;1.50;;
9052;SDS011;4561;47.450;7.516;2022-11-10T14:10:42;6.00;;;2.10;;
9052;SDS011;4561;47.450;7.516;2022-11-10T14:14:12;3.73;;;1.70;;
9052;SDS011;4561;47.450;7.516;2022-11-10T14:17:48;6.43;;;1.90;;
9052;SDS011;4561;47.450;7.516;2022-11-10T14:21:11;4.63;;;2.23;;
9052;SDS011;4561;47.450;7.516;2022-11-10T14:28:33;5.90;;;1.73;;
9052;SDS011;4561;47.450;7.516;2022-11-10T14:31:58;4.87;;;1.70;;
9052;SDS011;4561;47.450;7.516;2022-11-10T14:35:23;4.13;;;1.80;;
9052;SDS011;4561;47.450;7.516;2022-11-10T14:38:46;6.63;;;1.83;;
9052;SDS011;4561;47.450;7.516;2022-11-10T14:42:06;4.37;;;1.70;;
9052;SDS011;4561;47.450;7.516;2022-11-10T14:45:35;7.17;;;1.90;;
9052;SDS011;4561;47.450;7.516;2022-11-10T14:49:00;4.73;;;1.43;;
9052;SDS011;4561;47.450;7.516;2022-11-10T14:52:21;5.20;;;1.70;;
9052;SDS011;4561;47.450;7.516;2022-11-10T14:55:42;6.90;;;1.60;;
9052;SDS011;4561;47.450;7.516;2022-11-10T14:59:03;5.60;;;2.00;;
9052;SDS011;4561;47.450;7.516;2022-11-10T15:02:25;5.73;;;1.87;;
9052;SDS011;4561;47.450;7.516;2022-11-10T15:05:45;4.33;;;1.50;;
9052;SDS011;4561;47.450;7.516;2022-11-10T15:09:21;5.00;;;1.57;;
9052;SDS011;4561;47.450;7.516;2022-11-10T15:12:43;5.20;;;1.30;;
9052;SDS011;4561;47.450;7.516;2022-11-10T15:23:21;5.37;;;1.73;;
9052;SDS011;4561;47.450;7.516;2022-11-10T15:26:42;2.90;;;1.30;;
9052;SDS011;4561;47.450;7.516;2022-11-10T15:30:02;4.23;;;1.60;;
9052;SDS011;4561;47.450;7.516;2022-11-10T15:33:44;3.23;;;1.47;;
9052;SDS011;4561;47.450;7.516;2022-11-10T15:37:09;5.23;;;1.50;;
9052;SDS011;4561;47.450;7.516;2022-11-10T15:40:32;2.63;;;1.30;;
9052;SDS011;4561;47.450;7.516;2022-11-10T15:44:16;4.50;;;1.97;;
9052;SDS011;4561;47.450;7.516;2022-11-10T15:47:39;2.77;;;1.53;;
9052;SDS011;4561;47.450;7.516;2022-11-10T15:51:00;7.20;;;1.60;;
9052;SDS011;4561;47.450;7.516;2022-11-10T15:54:20;3.67;;;1.47;;
9052;SDS011;4561;47.450;7.516;2022-11-10T15:57:41;6.70;;;1.57;;
9052;SDS011;4561;47.450;7.516;2022-11-10T16:01:02;3.63;;;1.60;;
9052;SDS011;4561;47.450;7.516;2022-11-10T16:04:24;5.33;;;2.00;;
9052;SDS011;4561;47.450;7.516;2022-11-10T16:07:45;6.37;;;2.23;;
9052;SDS011;4561;47.450;7.516;2022-11-10T16:11:13;2.53;;;1.50;;
9052;SDS011;4561;47.450;7.516;2022-11-10T16:14:38;3.77;;;2.00;;
9052;SDS011;4561;47.450;7.516;2022-11-10T16:18:00;8.33;;;5.33;;
9052;SDS011;4561;47.450;7.516;2022-11-10T16:21:22;5.47;;;3.17;;
9052;SDS011;4561;47.450;7.516;2022-11-10T16:24:43;4.10;;;2.60;;
9052;SDS011;4561;47.450;7.516;2022-11-10T16:28:04;7.87;;;3.33;;
9052;SDS011;4561;47.450;7.516;2022-11-10T16:31:25;5.33;;;1.83;;
9052;SDS011;4561;47.450;7.516;2022-11-10T16:34:46;6.03;;;1.73;;
9052;SDS011;4561;47.450;7.516;2022-11-10T16:38:17;4.47;;;1.80;;
9052;SDS011;4561;47.450;7.516;2022-11-10T16:41:39;5.13;;;1.83;;
9052;SDS011;4561;47.450;7.516;2022-11-10T16:45:03;4.47;;;1.80;;
9052;SDS011;4561;47.450;7.516;2022-11-10T16:48:30;3.27;;;1.77;;
9052;SDS011;4561;47.450;7.516;2022-11-10T16:51:51;5.73;;;1.80;;
9052;SDS011;4561;47.450;7.516;2022-11-10T16:55:14;4.03;;;1.67;;
9052;SDS011;4561;47.450;7.516;2022-11-10T16:58:35;5.63;;;2.17;;
9052;SDS011;4561;47.450;7.516;2022-11-10T17:01:57;3.53;;;2.10;;
9052;SDS011;4561;47.450;7.516;2022-11-10T17:05:18;1.73;;;1.53;;
9052;SDS011;4561;47.450;7.516;2022-11-10T17:08:38;3.33;;;1.80;;
9052;SDS011;4561;47.450;7.516;2022-11-10T17:11:59;4.03;;;1.67;;
9052;SDS011;4561;47.450;7.516;2022-11-10T17:15:20;4.63;;;1.70;;
9052;SDS011;4561;47.450;7.516;2022-11-10T17:18:40;4.87;;;1.63;;
9052;SDS011;4561;47.450;7.516;2022-11-10T17:22:02;3.63;;;1.57;;
9052;SDS011;4561;47.450;7.516;2022-11-10T17:25:29;4.07;;;1.40;;
9052;SDS011;4561;47.450;7.516;2022-11-10T17:28:50;3.27;;;1.50;;
9052;SDS011;4561;47.450;7.516;2022-11-10T17:32:10;7.70;;;2.00;;
9052;SDS011;4561;47.450;7.516;2022-11-10T17:35:32;5.20;;;1.83;;
9052;SDS011;4561;47.450;7.516;2022-11-10T17:38:54;4.43;;;2.13;;
9052;SDS011;4561;47.450;7.516;2022-11-10T17:42:15;4.10;;;1.90;;
9052;SDS011;4561;47.450;7.516;2022-11-10T17:45:36;6.20;;;1.70;;
9052;SDS011;4561;47.450;7.516;2022-11-10T17:48:56;5.30;;;1.83;;
9052;SDS011;4561;47.450;7.516;2022-11-10T17:52:17;3.57;;;1.50;;
9052;SDS011;4561;47.450;7.516;2022-11-10T17:55:37;4.93;;;1.73;;
9052;SDS011;4561;47.450;7.516;2022-11-10T17:58:57;4.60;;;1.67;;
9052;SDS011;4561;47.450;7.516;2022-11-10T18:02:18;6.23;;;2.07;;
9052;SDS011;4561;47.450;7.516;2022-11-10T18:05:38;3.77;;;1.77;;
9052;SDS011;4561;47.450;7.516;2022-11-10T18:08:59;3.27;;;1.70;;
9052;SDS011;4561;47.450;7.516;2022-11-10T18:12:19;4.73;;;1.70;;
9052;SDS011;4561;47.450;7.516;2022-11-10T18:15:42;4.60;;;2.10;;
9052;SDS011;4561;47.450;7.516;2022-11-10T18:19:03;5.87;;;3.03;;
9052;SDS011;4561;47.450;7.516;2022-11-10T18:22:26;6.13;;;3.37;;
9052;SDS011;4561;47.450;7.516;2022-11-10T18:25:47;5.57;;;2.03;;
9052;SDS011;4561;47.450;7.516;2022-11-10T18:29:07;5.37;;;3.40;;
9052;SDS011;4561;47.450;7.516;2022-11-10T18:32:28;4.13;;;3.57;;
9052;SDS011;4561;47.450;7.516;2022-11-10T18:35:48;5.63;;;3.40;;
9052;SDS011;4561;47.450;7.516;2022-11-10T18:39:11;6.07;;;4.07;;
9052;SDS011;4561;47.450;7.516;2022-11-10T18:42:31;4.20;;;3.30;;
9052;SDS011;4561;47.450;7.516;2022-11-10T18:45:53;6.37;;;3.97;;
9052;SDS011;4561;47.450;7.516;2022-11-10T18:49:14;4.47;;;1.57;;
9052;SDS011;4561;47.450;7.516;2022-11-10T18:52:37;2.67;;;1.77;;
9052;SDS011;4561;47.450;7.516;2022-11-10T18:55:57;5.73;;;1.43;;
9052;SDS011;4561;47.450;7.516;2022-11-10T18:59:17;5.30;;;2.20;;
9052;SDS011;4561;47.450;7.516;2022-11-10T19:02:38;5.27;;;1.70;;
9052;SDS011;4561;47.450;7.516;2022-11-10T19:05:58;3.03;;;1.40;;
9052;SDS011;4561;47.450;7.516;2022-11-10T19:09:21;3.67;;;1.57;;
9052;SDS011;4561;47.450;7.516;2022-11-10T19:12:41;3.50;;;1.80;;
9052;SDS011;4561;47.450;7.516;2022-11-10T19:16:05;3.30;;;1.60;;
9052;SDS011;4561;47.450;7.516;2022-11-10T19:19:26;1.80;;;1.30;;
9052;SDS011;4561;47.450;7.516;2022-11-10T19:22:47;5.17;;;2.30;;
9052;SDS011;4561;47.450;7.516;2022-11-10T19:26:13;2.70;;;1.60;;
9052;SDS011;4561;47.450;7.516;2022-11-10T19:29:35;16.77;;;11.17;;
9052;SDS011;4561;47.450;7.516;2022-11-10T19:32:55;16.37;;;10.17;;
9052;SDS011;4561;47.450;7.516;2022-11-10T19:36:17;18.03;;;11.77;;
9052;SDS011;4561;47.450;7.516;2022-11-10T19:39:41;6.23;;;4.70;;
9052;SDS011;4561;47.450;7.516;2022-11-10T19:43:02;6.23;;;2.50;;
9052;SDS011;4561;47.450;7.516;2022-11-10T19:46:23;3.70;;;1.80;;
9052;SDS011;4561;47.450;7.516;2022-11-10T19:49:46;4.80;;;2.80;;
9052;SDS011;4561;47.450;7.516;2022-11-10T19:53:06;9.73;;;4.70;;
9052;SDS011;4561;47.450;7.516;2022-11-10T19:56:30;5.90;;;2.93;;
9052;SDS011;4561;47.450;7.516;2022-11-10T19:59:53;16.90;;;11.07;;
9052;SDS011;4561;47.450;7.516;2022-11-10T20:03:13;12.80;;;8.50;;
9052;SDS011;4561;47.450;7.516;2022-11-10T20:06:34;5.77;;;3.90;;
9052;SDS011;4561;47.450;7.516;2022-11-10T20:09:54;4.23;;;2.73;;
9052;SDS011;4561;47.450;7.516;2022-11-10T20:13:14;8.27;;;3.70;;
9052;SDS011;4561;47.450;7.516;2022-11-10T20:16:35;9.37;;;5.23;;
9052;SDS011;4561;47.450;7.516;2022-11-10T20:19:55;6.40;;;4.57;;
9052;SDS011;4561;47.450;7.516;2022-11-10T20:23:16;7.37;;;4.43;;
9052;SDS011;4561;47.450;7.516;2022-11-10T20:26:37;10.43;;;6.53;;
9052;SDS011;4561;47.450;7.516;2022-11-10T20:29:58;36.53;;;25.57;;
9052;SDS011;4561;47.450;7.516;2022-11-10T20:33:18;34.27;;;26.47;;
9052;SDS011;4561;47.450;7.516;2022-11-10T20:36:39;8.43;;;5.97;;
9052;SDS011;4561;47.450;7.516;2022-11-10T20:39:59;7.03;;;4.80;;
9052;SDS011;4561;47.450;7.516;2022-11-10T20:43:20;6.23;;;4.00;;
9052;SDS011;4561;47.450;7.516;2022-11-10T20:46:40;6.80;;;3.90;;
9052;SDS011;4561;47.450;7.516;2022-11-10T20:50:00;7.27;;;4.57;;
9052;SDS011;4561;47.450;7.516;2022-11-10T20:53:21;4.80;;;3.67;;
9052;SDS011;4561;47.450;7.516;2022-11-10T20:56:41;5.67;;;3.70;;
9052;SDS011;4561;47.450;7.516;2022-11-10T21:00:02;4.87;;;3.53;;
9052;SDS011;4561;47.450;7.516;2022-11-10T21:03:23;6.37;;;3.40;;
9052;SDS011;4561;47.450;7.516;2022-11-10T21:06:43;4.00;;;3.17;;
9052;SDS011;4561;47.450;7.516;2022-11-10T21:10:03;4.23;;;3.27;;
9052;SDS011;4561;47.450;7.516;2022-11-10T21:13:24;6.50;;;4.10;;
9052;SDS011;4561;47.450;7.516;2022-11-10T21:16:50;5.90;;;3.70;;
9052;SDS011;4561;47.450;7.516;2022-11-10T21:20:10;7.97;;;4.20;;
9052;SDS011;4561;47.450;7.516;2022-11-10T21:23:33;11.93;;;4.83;;
9052;SDS011;4561;47.450;7.516;2022-11-10T21:26:55;9.60;;;6.47;;
9052;SDS011;4561;47.450;7.516;2022-11-10T21:30:16;6.43;;;4.57;;
9052;SDS011;4561;47.450;7.516;2022-11-10T21:33:41;6.17;;;5.57;;
9052;SDS011;4561;47.450;7.516;2022-11-10T21:37:02;9.67;;;6.43;;
9052;SDS011;4561;47.450;7.516;2022-11-10T21:40:22;7.60;;;4.93;;
9052;SDS011;4561;47.450;7.516;2022-11-10T21:43:44;7.73;;;6.43;;
9052;SDS011;4561;47.450;7.516;2022-11-10T21:47:04;7.33;;;6.50;;
9052;SDS011;4561;47.450;7.516;2022-11-10T21:50:24;7.40;;;5.53;;
9052;SDS011;4561;47.450;7.516;2022-11-10T21:53:45;9.77;;;7.60;;
9052;SDS011;4561;47.450;7.516;2022-11-10T21:57:05;6.70;;;5.50;;
9052;SDS011;4561;47.450;7.516;2022-11-10T22:00:26;9.87;;;7.10;;
9052;SDS011;4561;47.450;7.516;2022-11-10T22:03:46;10.50;;;5.60;;
9052;SDS011;4561;47.450;7.516;2022-11-10T22:07:07;5.63;;;4.80;;
9052;SDS011;4561;47.450;7.516;2022-11-10T22:10:42;5.97;;;5.37;;
9052;SDS011;4561;47.450;7.516;2022-11-10T22:14:21;7.10;;;5.90;;
9052;SDS011;4561;47.450;7.516;2022-11-10T22:18:00;8.97;;;5.07;;
9052;SDS011;4561;47.450;7.516;2022-11-10T22:21:39;9.47;;;5.13;;
9052;SDS011;4561;47.450;7.516;2022-11-10T22:24:59;8.13;;;5.70;;
9052;SDS011;4561;47.450;7.516;2022-11-10T22:28:19;9.87;;;4.63;;
9052;SDS011;4561;47.450;7.516;2022-11-10T22:31:40;6.93;;;4.73;;
9052;SDS011;4561;47.450;7.516;2022-11-10T22:35:00;5.20;;;4.40;;
9052;SDS011;4561;47.450;7.516;2022-11-10T22:38:20;5.97;;;4.60;;
9052;SDS011;4561;47.450;7.516;2022-11-10T22:41:41;9.77;;;4.67;;